createdAt,value
2019-01-14T00:00:35.568Z,7.60
2019-01-14T00:05:30.180Z,7.60
2019-01-14T00:10:24.290Z,7.60
2019-01-14T00:15:20.561Z,7.50
2019-01-14T00:20:15.670Z,7.30
2019-01-14T00:25:09.859Z,7.30
2019-01-14T00:30:05.775Z,7.40
2019-01-14T00:35:00.663Z,7.40
2019-01-14T00:39:54.983Z,7.50
2019-01-14T00:44:48.707Z,7.50
2019-01-14T00:49:42.470Z,7.50
2019-01-14T00:54:36.414Z,7.60
2019-01-14T00:59:30.111Z,7.60
2019-01-14T01:04:24.427Z,7.50
2019-01-14T01:09:18.418Z,7.10
2019-01-14T01:14:12.170Z,6.90
2019-01-14T01:19:07.532Z,6.70
2019-01-14T01:24:01.426Z,6.70
2019-01-14T01:28:57.776Z,6.80
2019-01-14T01:33:52.169Z,6.70
2019-01-14T01:38:46.272Z,6.40
2019-01-14T01:43:40.361Z,6.20
2019-01-14T01:48:34.457Z,6.10
2019-01-14T01:53:28.375Z,6.00
2019-01-14T01:58:22.073Z,6.00
2019-01-14T02:03:15.798Z,6.20
2019-01-14T02:08:09.531Z,6.50
2019-01-14T02:13:07.283Z,6.60
2019-01-14T02:18:01.625Z,6.50
2019-01-14T02:22:56.225Z,6.40
2019-01-14T02:27:50.147Z,6.30
2019-01-14T02:32:44.275Z,6.40
2019-01-14T02:37:38.019Z,6.50
2019-01-14T02:42:31.756Z,6.50
2019-01-14T02:47:25.611Z,6.40
2019-01-14T02:52:19.491Z,6.40
2019-01-14T02:57:13.236Z,6.40
2019-01-14T03:02:07.128Z,6.40
2019-01-14T03:07:00.877Z,6.40
2019-01-14T03:11:54.550Z,6.40
2019-01-14T03:16:51.598Z,6.40
2019-01-14T03:21:47.297Z,6.30
2019-01-14T03:26:41.747Z,6.30
2019-01-14T03:31:36.025Z,6.30
2019-01-14T03:36:29.845Z,6.20
2019-01-14T03:41:24.746Z,6.30
2019-01-14T03:46:18.739Z,6.20
2019-01-14T03:51:12.547Z,6.20
2019-01-14T03:56:08.659Z,6.10
2019-01-14T04:01:03.795Z,6.10
2019-01-14T04:05:57.535Z,6.00
2019-01-14T04:10:51.293Z,6.00
2019-01-14T04:15:46.493Z,6.00
2019-01-14T04:20:41.008Z,6.00
2019-01-14T04:25:36.629Z,6.00
2019-01-14T04:30:30.949Z,6.00
2019-01-14T04:35:24.817Z,5.90
2019-01-14T04:40:21.527Z,5.90
2019-01-14T04:45:16.256Z,5.90
2019-01-14T04:50:19.902Z,5.90
2019-01-14T04:55:13.751Z,5.80
2019-01-14T05:00:11.181Z,5.80
2019-01-14T05:05:07.056Z,5.80
2019-01-14T05:10:01.214Z,5.80
2019-01-14T05:14:54.972Z,5.70
2019-01-14T05:19:48.653Z,5.70
2019-01-14T05:24:43.379Z,5.60
2019-01-14T05:29:37.647Z,5.60
2019-01-14T05:34:31.472Z,5.50
2019-01-14T05:39:25.787Z,5.40
2019-01-14T05:44:19.541Z,5.30
2019-01-14T05:49:14.279Z,5.00
2019-01-14T05:54:09.290Z,4.80
2019-01-14T05:59:05.870Z,4.50
2019-01-14T06:04:00.886Z,4.40
2019-01-14T06:08:54.603Z,4.20
2019-01-14T06:13:50.840Z,4.20
2019-01-14T06:18:47.174Z,4.30
2019-01-14T06:23:44.232Z,4.40
2019-01-14T06:28:38.730Z,4.40
2019-01-14T06:33:32.817Z,4.40
2019-01-14T06:38:26.577Z,4.30
2019-01-14T06:43:22.764Z,4.20
2019-01-14T06:48:16.791Z,4.10
2019-01-14T06:53:11.368Z,4.10
2019-01-14T06:58:26.298Z,4.30
2019-01-14T07:03:25.492Z,4.30
2019-01-14T07:08:21.220Z,4.20
2019-01-14T07:13:16.100Z,4.30
2019-01-14T07:18:09.981Z,4.50
2019-01-14T07:23:08.183Z,4.60
2019-01-14T07:28:04.507Z,4.70
2019-01-14T07:32:59.429Z,4.70
2019-01-14T07:37:54.273Z,4.80
2019-01-14T07:42:49.935Z,4.90
2019-01-14T07:47:47.083Z,5.00
2019-01-14T07:52:41.560Z,4.90
2019-01-14T07:57:37.072Z,5.00
2019-01-14T08:02:33.401Z,5.40
2019-01-14T08:07:29.826Z,5.70
2019-01-14T08:12:40.620Z,6.00
2019-01-14T08:17:39.140Z,5.90
2019-01-14T08:22:35.890Z,5.70
2019-01-14T08:27:31.799Z,5.60
2019-01-14T08:32:27.220Z,5.60
2019-01-14T08:37:21.465Z,5.70
2019-01-14T08:42:18.240Z,6.20
2019-01-14T08:47:13.154Z,7.50
2019-01-14T08:52:08.573Z,8.00
2019-01-14T08:57:03.864Z,7.10
2019-01-14T09:01:58.395Z,6.80
2019-01-14T09:06:52.252Z,7.60
2019-01-14T09:11:47.520Z,8.40
2019-01-14T09:16:43.754Z,8.30
2019-01-14T09:21:39.365Z,8.90
2019-01-14T09:26:33.647Z,11.00
2019-01-14T09:31:31.457Z,12.20
2019-01-14T09:36:26.319Z,11.50
2019-01-14T09:41:23.693Z,9.90
2019-01-14T09:46:17.248Z,8.70
2019-01-14T09:51:12.339Z,8.00
2019-01-14T09:56:10.943Z,7.60
2019-01-14T10:01:14.160Z,7.20
2019-01-14T10:06:11.930Z,7.10
2019-01-14T10:11:10.229Z,7.10
2019-01-14T10:16:07.083Z,7.40
2019-01-14T10:21:01.042Z,7.40
2019-01-14T10:25:54.971Z,7.20
2019-01-14T10:30:53.676Z,7.00
2019-01-14T10:35:49.633Z,6.80
2019-01-14T10:40:45.124Z,6.80
2019-01-14T10:45:39.938Z,6.90
2019-01-14T10:50:36.900Z,6.90
2019-01-14T10:55:33.232Z,9.50
2019-01-14T11:00:28.531Z,12.50
2019-01-14T11:05:27.452Z,14.30
2019-01-14T11:10:23.064Z,14.00
2019-01-14T11:15:21.727Z,13.00
2019-01-14T11:20:18.861Z,12.70
2019-01-14T11:25:13.305Z,11.60
2019-01-14T11:30:21.790Z,12.60
2019-01-14T11:35:16.576Z,12.70
2019-01-14T11:40:14.119Z,12.20
2019-01-14T11:45:11.065Z,10.50
2019-01-14T11:50:07.744Z,9.00
2019-01-14T11:55:01.838Z,7.70
2019-01-14T11:59:57.612Z,6.90
2019-01-14T12:04:51.796Z,6.50
2019-01-14T12:09:48.098Z,6.20
2019-01-14T12:14:44.254Z,6.00
2019-01-14T12:19:43.840Z,6.20
2019-01-14T12:24:37.590Z,7.00
2019-01-14T12:29:32.663Z,7.50
2019-01-14T12:34:27.085Z,6.50
2019-01-14T12:39:20.848Z,5.50
2019-01-14T12:44:14.728Z,5.00
2019-01-14T12:49:09.120Z,4.70
2019-01-14T12:54:05.071Z,4.80
2019-01-14T12:58:58.856Z,4.90
2019-01-14T13:03:54.773Z,5.20
2019-01-14T13:08:50.569Z,5.30
2019-01-14T13:13:44.836Z,5.40
2019-01-14T13:18:38.498Z,5.20
2019-01-14T13:23:33.252Z,5.10
2019-01-14T13:28:27.022Z,5.00
2019-01-14T13:33:22.024Z,4.90
2019-01-14T13:38:16.002Z,4.70
2019-01-14T13:43:10.796Z,4.40
2019-01-14T13:48:05.545Z,4.20
2019-01-14T13:53:00.430Z,4.20
2019-01-14T13:57:59.759Z,4.30
2019-01-14T14:03:13.226Z,4.40
2019-01-14T14:08:08.241Z,4.50
2019-01-14T14:13:04.087Z,4.40
2019-01-14T14:17:59.817Z,4.10
2019-01-14T14:22:54.420Z,3.50
2019-01-14T14:27:49.434Z,3.00
2019-01-14T14:32:43.293Z,2.70
2019-01-14T14:37:39.904Z,2.60
2019-01-14T14:42:34.529Z,2.60
2019-01-14T14:47:35.152Z,2.70
2019-01-14T14:52:30.979Z,2.80
2019-01-14T14:57:24.941Z,2.80
2019-01-14T15:02:19.162Z,2.80
2019-01-14T15:07:15.406Z,2.80
2019-01-14T15:12:09.297Z,2.80
2019-01-14T15:17:05.601Z,2.70
2019-01-14T15:22:00.931Z,2.70
2019-01-14T15:26:55.630Z,2.70
2019-01-14T15:31:49.390Z,2.80
2019-01-14T15:36:43.233Z,2.80
2019-01-14T15:41:40.414Z,2.70
2019-01-14T15:46:34.353Z,2.50
2019-01-14T15:51:29.638Z,2.40
2019-01-14T15:56:24.449Z,2.30
2019-01-14T16:01:21.643Z,2.10
2019-01-14T16:06:16.025Z,2.00
2019-01-14T16:11:13.478Z,1.90
2019-01-14T16:16:08.367Z,1.80
2019-01-14T16:21:04.417Z,1.80
2019-01-14T16:26:01.118Z,1.70
2019-01-14T16:30:55.693Z,1.50
2019-01-14T16:35:49.929Z,1.50
2019-01-14T16:40:44.103Z,1.40
2019-01-14T16:45:39.511Z,1.40
2019-01-14T16:50:33.611Z,1.30
2019-01-14T16:55:29.081Z,1.30
2019-01-14T17:00:23.901Z,1.30
2019-01-14T17:05:19.042Z,1.20
2019-01-14T17:10:14.826Z,1.20
2019-01-14T17:15:08.764Z,1.20
2019-01-14T17:20:04.855Z,1.20
2019-01-14T17:24:58.856Z,1.20
2019-01-14T17:29:52.744Z,1.20
2019-01-14T17:34:47.477Z,1.20
2019-01-14T17:39:44.433Z,1.10
2019-01-14T17:44:38.517Z,1.10
2019-01-14T17:49:34.405Z,1.00
2019-01-14T17:54:30.161Z,1.00
2019-01-14T17:59:26.417Z,0.90
2019-01-14T18:04:21.714Z,0.90
2019-01-14T18:09:18.380Z,0.90
2019-01-14T18:14:17.733Z,0.80
2019-01-14T18:19:14.960Z,0.80
2019-01-14T18:24:16.286Z,0.70
2019-01-14T18:29:12.471Z,0.80
2019-01-14T18:34:08.575Z,0.80
2019-01-14T18:39:03.976Z,0.70
2019-01-14T18:44:00.193Z,0.70
2019-01-14T18:48:56.237Z,0.70
2019-01-14T18:53:50.612Z,0.70
2019-01-14T19:04:01.397Z,0.70
2019-01-14T19:09:02.187Z,0.80
2019-01-14T19:13:57.108Z,0.90
2019-01-14T19:18:51.008Z,0.90
2019-01-14T19:23:45.478Z,0.90
2019-01-14T19:28:39.704Z,0.90
2019-01-14T19:38:39.236Z,1.20
2019-01-14T19:43:35.214Z,1.20
2019-01-14T19:48:30.399Z,1.10
2019-01-14T19:53:32.618Z,1.00
2019-01-14T19:58:30.074Z,1.10
2019-01-14T20:03:24.885Z,1.20
2019-01-14T20:08:20.265Z,1.20
2019-01-14T20:13:15.750Z,1.20
2019-01-14T20:18:12.061Z,1.20
2019-01-14T20:23:05.823Z,1.10
2019-01-14T20:28:01.739Z,1.10
2019-01-14T20:33:01.022Z,1.20
2019-01-14T20:37:58.206Z,1.40
2019-01-14T20:42:53.020Z,1.50
2019-01-14T20:47:47.810Z,1.70
2019-01-14T20:52:42.891Z,1.80
2019-01-14T20:57:37.325Z,1.90
2019-01-14T21:02:32.114Z,2.00
2019-01-14T21:07:26.816Z,2.00
2019-01-14T21:12:21.146Z,1.90
2019-01-14T21:17:16.720Z,2.10
2019-01-14T21:22:11.134Z,2.10
2019-01-14T21:27:07.648Z,2.10
2019-01-14T21:32:01.704Z,2.10
2019-01-14T21:36:56.560Z,2.10
2019-01-14T21:41:51.867Z,2.00
2019-01-14T21:46:47.183Z,2.00
2019-01-14T21:51:41.177Z,2.10
2019-01-14T21:56:35.019Z,2.30
2019-01-14T22:01:28.756Z,2.40
2019-01-14T22:06:23.497Z,2.50
2019-01-14T22:11:17.356Z,2.60
2019-01-14T22:16:13.377Z,2.60
2019-01-14T22:21:07.074Z,2.60
2019-01-14T22:26:02.092Z,2.50
2019-01-14T22:30:55.926Z,2.40
2019-01-14T22:35:51.316Z,2.40
2019-01-14T22:41:07.472Z,2.30
2019-01-14T22:46:05.654Z,2.20
2019-01-14T22:50:59.906Z,2.40
2019-01-14T22:55:57.685Z,2.50
2019-01-14T23:01:07.519Z,2.50
2019-01-14T23:06:07.163Z,2.60
2019-01-14T23:11:06.243Z,2.50
2019-01-14T23:16:00.507Z,2.60
2019-01-14T23:20:54.887Z,2.60
2019-01-14T23:25:50.051Z,2.60
2019-01-14T23:30:44.275Z,2.70
2019-01-14T23:35:39.236Z,2.70
2019-01-14T23:40:33.888Z,2.80
2019-01-14T23:45:28.947Z,2.90
2019-01-14T23:50:26.468Z,2.90
2019-01-14T23:55:24.626Z,3.00
